createdAt,value
2023-02-23T00:00:28.983Z,21.55
2023-02-23T00:02:58.996Z,21.52
2023-02-23T00:05:26.518Z,22.17
2023-02-23T00:07:54.074Z,22.15
2023-02-23T00:10:22.101Z,21.63
2023-02-23T00:12:51.541Z,21.77
2023-02-23T00:15:17.944Z,21.85
2023-02-23T00:17:44.369Z,21.77
2023-02-23T00:20:11.998Z,21.63
2023-02-23T00:22:40.188Z,21.90
2023-02-23T00:25:11.721Z,22.80
2023-02-23T00:27:44.096Z,21.50
2023-02-23T00:30:12.978Z,22.80
2023-02-23T00:32:39.490Z,22.70
2023-02-23T00:35:11.682Z,23.75
2023-02-23T00:37:38.066Z,22.48
2023-02-23T00:40:16.444Z,24.67
2023-02-23T00:42:47.696Z,23.13
2023-02-23T00:45:14.275Z,22.95
2023-02-23T00:47:43.375Z,24.63
2023-02-23T00:50:16.136Z,24.30
2023-02-23T00:52:43.816Z,23.30
2023-02-23T00:55:15.020Z,23.77
2023-02-23T00:57:41.504Z,24.30
2023-02-23T01:00:28.650Z,24.15
2023-02-23T01:02:55.690Z,23.85
2023-02-23T01:05:22.158Z,24.20
2023-02-23T01:07:49.214Z,24.23
2023-02-23T01:10:21.817Z,23.05
2023-02-23T01:12:50.442Z,24.65
2023-02-23T01:15:18.182Z,24.23
2023-02-23T01:17:45.501Z,24.48
2023-02-23T01:20:20.251Z,26.00
2023-02-23T01:22:49.823Z,24.65
2023-02-23T01:25:17.880Z,24.92
2023-02-23T01:27:45.054Z,24.70
2023-02-23T01:30:14.760Z,24.88
2023-02-23T01:32:41.456Z,24.57
2023-02-23T01:35:10.432Z,23.85
2023-02-23T01:37:40.538Z,25.63
2023-02-23T01:40:31.325Z,25.10
2023-02-23T01:43:14.785Z,25.23
2023-02-23T01:45:43.413Z,24.20
2023-02-23T01:48:13.818Z,25.05
2023-02-23T01:51:01.591Z,25.55
2023-02-23T01:53:34.096Z,24.02
2023-02-23T01:56:11.420Z,25.63
2023-02-23T01:58:43.633Z,23.63
2023-02-23T02:01:11.358Z,25.65
2023-02-23T02:03:46.739Z,26.30
2023-02-23T02:06:16.434Z,24.83
2023-02-23T02:08:48.590Z,25.50
2023-02-23T02:11:36.972Z,24.03
2023-02-23T02:14:13.090Z,25.00
2023-02-23T02:16:52.729Z,25.23
2023-02-23T02:19:50.194Z,25.65
2023-02-23T02:22:51.521Z,24.40
2023-02-23T02:25:32.964Z,23.60
2023-02-23T02:28:29.833Z,24.23
2023-02-23T02:31:16.472Z,23.58
2023-02-23T02:34:00.979Z,23.23
2023-02-23T02:37:00.321Z,24.80
2023-02-23T02:39:39.500Z,24.07
2023-02-23T02:42:23.568Z,24.90
2023-02-23T02:45:01.719Z,23.95
2023-02-23T02:47:43.114Z,24.40
2023-02-23T02:50:15.754Z,25.13
2023-02-23T02:52:54.311Z,23.43
2023-02-23T02:55:26.503Z,25.35
2023-02-23T02:57:57.203Z,24.85
2023-02-23T03:01:07.174Z,24.38
2023-02-23T03:03:55.869Z,25.23
2023-02-23T03:06:47.740Z,24.97
2023-02-23T03:09:51.195Z,25.25
2023-02-23T03:12:53.318Z,24.63
2023-02-23T03:16:09.737Z,24.92
2023-02-23T03:19:05.932Z,25.08
2023-02-23T03:22:11.085Z,25.60
2023-02-23T03:25:17.007Z,24.48
2023-02-23T03:28:36.910Z,24.92
2023-02-23T03:31:24.822Z,24.95
2023-02-23T03:34:18.810Z,24.40
2023-02-23T03:37:10.166Z,23.67
2023-02-23T03:40:06.228Z,23.73
2023-02-23T03:42:55.215Z,24.27
2023-02-23T03:45:44.182Z,24.42
2023-02-23T03:48:31.929Z,23.25
2023-02-23T03:51:24.313Z,24.40
2023-02-23T03:54:17.183Z,24.80
2023-02-23T03:57:06.513Z,25.50
2023-02-23T03:59:58.644Z,24.77
2023-02-23T04:02:45.064Z,23.75
2023-02-23T04:05:35.356Z,24.70
2023-02-23T04:08:24.858Z,23.95
2023-02-23T04:11:17.579Z,24.25
2023-02-23T04:13:48.784Z,23.50
2023-02-23T04:16:15.315Z,24.67
2023-02-23T04:18:42.568Z,23.97
2023-02-23T04:21:09.050Z,24.00
2023-02-23T04:23:37.726Z,24.55
2023-02-23T04:26:05.072Z,23.80
2023-02-23T04:28:31.639Z,23.77
2023-02-23T04:30:58.103Z,23.50
2023-02-23T04:33:27.183Z,24.13
2023-02-23T04:35:54.499Z,23.67
2023-02-23T04:38:21.814Z,23.33
2023-02-23T04:40:48.344Z,23.25
2023-02-23T04:43:15.076Z,24.47
2023-02-23T04:45:42.186Z,24.17
2023-02-23T04:48:08.712Z,23.88
2023-02-23T04:50:35.412Z,23.90
2023-02-23T04:53:01.840Z,22.23
2023-02-23T04:55:28.691Z,25.03
2023-02-23T04:58:00.635Z,23.65
2023-02-23T05:00:29.371Z,23.25
2023-02-23T05:02:56.864Z,23.65
2023-02-23T05:05:23.293Z,24.60
2023-02-23T05:07:49.797Z,22.77
2023-02-23T05:10:16.258Z,23.95
2023-02-23T05:12:42.809Z,24.58
2023-02-23T05:15:10.956Z,24.33
2023-02-23T05:17:41.122Z,24.95
2023-02-23T05:20:11.506Z,23.47
2023-02-23T05:22:37.973Z,25.13
2023-02-23T05:25:06.270Z,23.90
2023-02-23T05:27:32.692Z,24.63
2023-02-23T05:29:59.134Z,23.65
2023-02-23T05:32:25.622Z,22.77
2023-02-23T05:34:52.046Z,21.92
2023-02-23T05:37:19.915Z,24.65
2023-02-23T05:39:47.264Z,22.80
2023-02-23T05:42:13.648Z,23.05
2023-02-23T05:44:40.047Z,23.27
2023-02-23T05:47:06.446Z,22.83
2023-02-23T05:49:32.804Z,24.05
2023-02-23T05:51:59.129Z,21.67
2023-02-23T05:54:25.809Z,23.17
2023-02-23T05:56:52.301Z,23.27
2023-02-23T05:59:18.686Z,23.77
2023-02-23T06:01:45.299Z,23.98
2023-02-23T06:04:11.694Z,23.35
2023-02-23T06:06:38.065Z,23.58
2023-02-23T06:09:04.599Z,22.53
2023-02-23T06:11:31.797Z,23.90
2023-02-23T06:13:59.484Z,20.92
2023-02-23T06:16:27.398Z,21.85
2023-02-23T06:18:53.952Z,22.58
2023-02-23T06:21:21.317Z,21.57
2023-02-23T06:23:47.762Z,22.55
2023-02-23T06:26:14.119Z,21.35
2023-02-23T06:28:40.431Z,20.90
2023-02-23T06:31:06.981Z,21.55
2023-02-23T06:33:33.613Z,20.97
2023-02-23T06:36:00.045Z,22.42
2023-02-23T06:38:27.910Z,19.70
2023-02-23T06:40:54.344Z,20.35
2023-02-23T06:43:23.089Z,21.17
2023-02-23T06:45:49.878Z,20.80
2023-02-23T06:48:17.475Z,21.98
2023-02-23T06:50:43.777Z,19.88
2023-02-23T06:53:10.110Z,20.05
2023-02-23T06:55:36.481Z,21.48
2023-02-23T06:58:03.536Z,21.03
2023-02-23T07:00:30.545Z,19.67
2023-02-23T07:02:57.822Z,20.25
2023-02-23T07:05:24.214Z,20.05
2023-02-23T07:07:52.085Z,20.13
2023-02-23T07:10:18.606Z,20.13
2023-02-23T07:12:44.937Z,19.38
2023-02-23T07:15:11.594Z,21.38
2023-02-23T07:17:38.197Z,21.42
2023-02-23T07:20:05.029Z,20.30
2023-02-23T07:22:31.371Z,20.43
2023-02-23T07:24:57.786Z,20.63
2023-02-23T07:27:24.714Z,20.40
2023-02-23T07:29:51.109Z,21.00
2023-02-23T07:32:17.638Z,20.05
2023-02-23T07:34:44.180Z,21.50
2023-02-23T07:37:10.704Z,22.02
2023-02-23T07:39:37.070Z,21.30
2023-02-23T07:42:04.113Z,20.85
2023-02-23T07:44:30.505Z,22.13
2023-02-23T07:46:57.658Z,23.33
2023-02-23T07:49:25.401Z,22.73
2023-02-23T07:51:51.761Z,23.30
2023-02-23T07:54:18.169Z,20.23
2023-02-23T07:56:44.562Z,22.02
2023-02-23T07:59:10.929Z,21.23
2023-02-23T08:01:37.260Z,22.02
2023-02-23T08:04:03.764Z,22.52
2023-02-23T08:06:30.582Z,22.48
2023-02-23T08:09:00.282Z,22.38
2023-02-23T08:11:29.070Z,22.23
2023-02-23T08:13:59.884Z,22.35
2023-02-23T08:16:31.730Z,21.15
2023-02-23T08:18:59.291Z,21.70
2023-02-23T08:21:27.528Z,21.13
2023-02-23T08:23:53.892Z,22.20
2023-02-23T08:26:20.234Z,21.80
2023-02-23T08:28:46.646Z,21.15
2023-02-23T08:31:16.157Z,22.55
2023-02-23T08:33:42.608Z,21.98
2023-02-23T08:36:09.061Z,20.90
2023-02-23T08:38:38.818Z,20.20
2023-02-23T08:41:05.928Z,21.10
2023-02-23T08:43:32.351Z,21.13
2023-02-23T08:45:58.784Z,22.88
2023-02-23T08:48:25.589Z,21.77
2023-02-23T08:50:56.521Z,20.60
2023-02-23T08:53:25.666Z,20.00
2023-02-23T08:56:02.985Z,18.52
2023-02-23T08:58:31.141Z,21.58
2023-02-23T09:00:58.292Z,21.60
2023-02-23T09:03:26.357Z,19.52
2023-02-23T09:05:53.154Z,19.98
2023-02-23T09:08:20.230Z,19.77
2023-02-23T09:10:46.899Z,20.02
2023-02-23T09:13:13.525Z,18.17
2023-02-23T09:15:40.968Z,18.08
2023-02-23T09:18:10.303Z,18.77
2023-02-23T09:20:36.745Z,19.23
2023-02-23T09:23:03.183Z,18.80
2023-02-23T09:25:31.466Z,18.43
2023-02-23T09:27:59.528Z,17.38
2023-02-23T09:30:27.166Z,17.27
2023-02-23T09:32:55.176Z,16.83
2023-02-23T09:35:24.328Z,16.02
2023-02-23T09:37:53.363Z,16.90
2023-02-23T09:40:35.139Z,15.73
2023-02-23T09:43:15.308Z,15.95
2023-02-23T09:45:51.222Z,14.10
2023-02-23T09:48:21.187Z,14.10
2023-02-23T09:50:56.989Z,14.40
2023-02-23T09:53:36.958Z,14.00
2023-02-23T09:56:18.519Z,14.27
2023-02-23T09:58:44.960Z,13.88
2023-02-23T10:01:41.022Z,13.48
2023-02-23T10:04:25.974Z,13.83
2023-02-23T10:07:21.088Z,14.85
2023-02-23T10:09:57.724Z,14.23
2023-02-23T10:12:55.013Z,13.40
2023-02-23T10:15:56.061Z,13.55
2023-02-23T10:18:46.500Z,14.33
2023-02-23T10:21:38.207Z,13.77
2023-02-23T10:24:43.178Z,13.52
2023-02-23T10:27:19.765Z,12.30
2023-02-23T10:29:51.478Z,12.88
2023-02-23T10:32:36.334Z,13.13
2023-02-23T10:35:11.124Z,13.20
2023-02-23T10:37:37.980Z,13.50
2023-02-23T10:40:06.311Z,12.63
2023-02-23T10:42:32.969Z,13.40
2023-02-23T10:45:00.098Z,12.13
2023-02-23T10:47:31.126Z,11.75
2023-02-23T10:49:58.653Z,12.02
2023-02-23T10:52:33.992Z,12.05
2023-02-23T10:55:04.141Z,11.32
2023-02-23T10:57:32.806Z,10.63
2023-02-23T11:00:04.392Z,11.02
2023-02-23T11:02:31.023Z,10.70
2023-02-23T11:04:59.721Z,11.07
2023-02-23T11:07:31.367Z,10.43
2023-02-23T11:09:59.512Z,11.60
2023-02-23T11:12:36.276Z,10.75
2023-02-23T11:15:48.551Z,10.30
2023-02-23T11:18:23.444Z,9.38
2023-02-23T11:20:51.201Z,10.50
2023-02-23T11:23:24.592Z,11.00
2023-02-23T11:25:55.479Z,10.60
2023-02-23T11:28:27.645Z,10.18
2023-02-23T11:30:54.122Z,8.98
2023-02-23T11:33:26.998Z,9.20
2023-02-23T11:36:00.783Z,8.17
2023-02-23T11:38:30.317Z,8.88
2023-02-23T11:41:01.659Z,8.88
2023-02-23T11:43:28.168Z,8.93
2023-02-23T11:46:00.627Z,8.45
2023-02-23T11:48:50.490Z,8.50
2023-02-23T11:51:24.979Z,7.72
2023-02-23T11:53:52.044Z,8.07
2023-02-23T11:56:25.530Z,8.50
2023-02-23T11:59:02.393Z,8.13
2023-02-23T12:01:45.237Z,8.97
2023-02-23T12:04:29.515Z,9.75
2023-02-23T12:07:21.967Z,9.68
2023-02-23T12:09:53.033Z,9.32
2023-02-23T12:12:24.299Z,9.48
2023-02-23T12:15:00.616Z,8.80
2023-02-23T12:17:33.694Z,8.93
2023-02-23T12:20:15.758Z,10.00
2023-02-23T12:23:05.257Z,9.52
2023-02-23T12:25:39.826Z,9.15
2023-02-23T12:28:37.776Z,8.53
2023-02-23T12:31:30.376Z,9.77
2023-02-23T12:34:01.971Z,9.70
2023-02-23T12:36:39.486Z,10.25
2023-02-23T12:39:18.950Z,8.98
2023-02-23T12:41:51.522Z,9.17
2023-02-23T12:44:33.844Z,9.82
2023-02-23T12:47:12.145Z,9.25
2023-02-23T12:49:46.051Z,8.80
2023-02-23T12:52:32.046Z,8.07
2023-02-23T12:54:58.477Z,9.00
2023-02-23T12:57:54.888Z,8.50
2023-02-23T13:00:40.327Z,9.10
2023-02-23T13:03:40.779Z,9.30
2023-02-23T13:06:17.348Z,8.90
2023-02-23T13:09:10.001Z,8.30
2023-02-23T13:11:45.312Z,9.25
2023-02-23T13:14:25.495Z,9.02
2023-02-23T13:17:00.314Z,7.65
2023-02-23T13:19:42.417Z,8.40
2023-02-23T13:22:36.552Z,7.97
2023-02-23T13:25:13.014Z,8.10
2023-02-23T13:27:51.655Z,7.82
2023-02-23T13:30:20.662Z,8.20
2023-02-23T13:32:47.305Z,7.45
2023-02-23T13:35:16.492Z,7.43
2023-02-23T13:37:54.127Z,7.70
2023-02-23T13:40:29.977Z,7.95
2023-02-23T13:43:17.581Z,7.38
2023-02-23T13:45:55.905Z,8.43
2023-02-23T13:48:56.145Z,8.40
2023-02-23T13:51:45.102Z,7.63
2023-02-23T13:54:15.012Z,9.10
2023-02-23T13:56:47.548Z,9.90
2023-02-23T13:59:23.691Z,8.25
2023-02-23T14:01:53.316Z,8.63
2023-02-23T14:04:29.470Z,8.65
2023-02-23T14:07:11.207Z,8.65
2023-02-23T14:09:44.456Z,9.25
2023-02-23T14:12:10.781Z,7.97
2023-02-23T14:14:37.309Z,8.43
2023-02-23T14:17:15.722Z,6.57
2023-02-23T14:19:44.192Z,6.20
2023-02-23T14:22:15.820Z,7.60
2023-02-23T14:24:42.171Z,7.88
2023-02-23T14:27:42.533Z,7.13
2023-02-23T14:30:11.942Z,7.72
2023-02-23T14:32:47.311Z,7.20
2023-02-23T14:35:32.299Z,8.27
2023-02-23T14:38:01.119Z,8.50
2023-02-23T14:40:39.391Z,9.87
2023-02-23T14:43:43.756Z,10.15
2023-02-23T14:46:25.865Z,9.75
2023-02-23T14:49:10.122Z,11.18
2023-02-23T14:51:44.385Z,11.38
2023-02-23T14:54:32.878Z,10.73
2023-02-23T14:57:02.138Z,12.48
2023-02-23T14:59:40.329Z,13.27
2023-02-23T15:02:19.173Z,11.45
2023-02-23T15:04:46.192Z,11.48
2023-02-23T15:07:38.512Z,11.50
2023-02-23T15:10:11.634Z,12.48
2023-02-23T15:12:39.004Z,13.60
2023-02-23T15:15:14.583Z,13.82
2023-02-23T15:17:44.644Z,14.70
2023-02-23T15:20:17.216Z,11.80
2023-02-23T15:22:48.437Z,9.48
2023-02-23T15:25:27.919Z,7.43
2023-02-23T15:27:55.948Z,5.70
2023-02-23T15:30:27.392Z,6.38
2023-02-23T15:33:06.047Z,4.23
2023-02-23T15:35:45.018Z,3.22
2023-02-23T15:38:40.375Z,3.00
2023-02-23T15:41:07.624Z,3.08
2023-02-23T15:43:34.561Z,2.45
2023-02-23T15:46:04.302Z,3.00
2023-02-23T15:48:41.248Z,2.88
2023-02-23T15:51:15.175Z,3.10
2023-02-23T15:53:41.705Z,3.65
2023-02-23T15:56:20.078Z,2.92
2023-02-23T15:58:57.063Z,2.27
2023-02-23T16:01:27.256Z,1.92
2023-02-23T16:04:06.467Z,1.70
2023-02-23T16:06:36.023Z,2.20
2023-02-23T16:09:24.128Z,2.30
2023-02-23T16:12:03.019Z,1.93
2023-02-23T16:14:44.810Z,2.20
2023-02-23T16:17:25.308Z,2.33
2023-02-23T16:19:54.117Z,2.28
2023-02-23T16:22:25.198Z,2.53
2023-02-23T16:25:01.684Z,2.17
2023-02-23T16:27:29.639Z,2.75
2023-02-23T16:30:00.421Z,3.15
2023-02-23T16:32:35.569Z,2.80
2023-02-23T16:35:14.043Z,3.67
2023-02-23T16:37:58.905Z,2.83
2023-02-23T16:40:25.459Z,3.08
2023-02-23T16:42:53.992Z,2.70
2023-02-23T16:45:21.341Z,2.42
2023-02-23T16:47:48.004Z,2.38
2023-02-23T16:50:25.080Z,2.50
2023-02-23T16:52:53.412Z,2.47
2023-02-23T16:55:28.215Z,2.60
2023-02-23T16:57:58.027Z,2.40
2023-02-23T17:00:28.720Z,2.78
2023-02-23T17:02:57.382Z,2.10
2023-02-23T17:05:24.286Z,2.10
2023-02-23T17:07:51.853Z,2.92
2023-02-23T17:10:25.179Z,3.30
2023-02-23T17:12:53.410Z,2.80
2023-02-23T17:15:22.155Z,1.97
2023-02-23T17:17:48.945Z,2.67
2023-02-23T17:20:17.577Z,2.92
2023-02-23T17:22:44.457Z,3.38
2023-02-23T17:25:11.225Z,2.55
2023-02-23T17:27:37.633Z,3.37
2023-02-23T17:30:06.296Z,2.35
2023-02-23T17:32:33.401Z,3.88
2023-02-23T17:34:59.908Z,2.45
2023-02-23T17:37:26.305Z,2.92
2023-02-23T17:39:52.650Z,2.53
2023-02-23T17:42:19.346Z,2.47
2023-02-23T17:44:45.785Z,2.85
2023-02-23T17:47:12.202Z,3.03
2023-02-23T17:49:38.726Z,2.53
2023-02-23T17:52:05.141Z,2.20
2023-02-23T17:54:31.531Z,2.72
2023-02-23T17:56:57.924Z,2.13
2023-02-23T17:59:24.419Z,3.45
2023-02-23T18:01:51.061Z,3.88
2023-02-23T18:04:17.502Z,2.93
2023-02-23T18:06:44.589Z,2.80
2023-02-23T18:09:14.492Z,3.03
2023-02-23T18:11:40.957Z,3.03
2023-02-23T18:14:07.947Z,2.97
2023-02-23T18:16:34.553Z,3.03
2023-02-23T18:19:00.938Z,2.58
2023-02-23T18:21:27.711Z,2.78
2023-02-23T18:23:54.381Z,3.50
2023-02-23T18:26:24.282Z,2.70
2023-02-23T18:28:51.481Z,3.13
2023-02-23T18:31:21.598Z,2.60
2023-02-23T18:33:54.659Z,1.65
2023-02-23T18:36:32.303Z,2.22
2023-02-23T18:39:00.567Z,2.47
2023-02-23T18:41:30.615Z,2.17
2023-02-23T18:44:01.730Z,3.50
2023-02-23T18:46:29.035Z,2.13
2023-02-23T18:48:55.543Z,2.40
2023-02-23T18:51:23.038Z,3.50
2023-02-23T18:53:50.601Z,3.40
2023-02-23T18:56:22.952Z,2.63
2023-02-23T18:58:50.374Z,2.28
2023-02-23T19:01:22.464Z,1.95
2023-02-23T19:03:50.674Z,1.65
2023-02-23T19:06:18.984Z,2.07
2023-02-23T19:08:53.899Z,2.78
2023-02-23T19:11:24.051Z,2.13
2023-02-23T19:13:54.848Z,2.05
2023-02-23T19:16:22.075Z,2.53
2023-02-23T19:18:48.467Z,1.87
2023-02-23T19:21:17.164Z,2.45
2023-02-23T19:23:44.648Z,2.30
2023-02-23T19:26:11.792Z,4.28
2023-02-23T19:28:38.282Z,2.08
2023-02-23T19:31:12.256Z,1.87
2023-02-23T19:33:39.229Z,1.60
2023-02-23T19:36:06.613Z,1.90
2023-02-23T19:38:33.361Z,1.83
2023-02-23T19:40:59.772Z,1.42
2023-02-23T19:43:26.360Z,1.83
2023-02-23T19:45:52.937Z,1.20
2023-02-23T19:48:19.426Z,1.20
2023-02-23T19:50:48.022Z,2.65
2023-02-23T19:53:15.898Z,1.75
2023-02-23T19:55:42.978Z,0.87
2023-02-23T19:58:09.681Z,1.45
2023-02-23T20:00:36.116Z,1.73
2023-02-23T20:03:06.316Z,1.30
2023-02-23T20:05:42.966Z,1.73
2023-02-23T20:08:10.039Z,1.30
2023-02-23T20:10:41.505Z,1.77
2023-02-23T20:13:08.130Z,1.35
2023-02-23T20:15:34.627Z,1.42
2023-02-23T20:18:00.998Z,2.45
2023-02-23T20:20:29.064Z,1.80
2023-02-23T20:22:55.979Z,1.80
2023-02-23T20:25:23.303Z,1.65
2023-02-23T20:27:50.709Z,2.13
2023-02-23T20:30:17.989Z,2.33
2023-02-23T20:32:44.891Z,2.10
2023-02-23T20:35:14.862Z,1.70
2023-02-23T20:37:41.687Z,2.33
2023-02-23T20:40:23.134Z,2.10
2023-02-23T20:42:51.166Z,1.63
2023-02-23T20:45:20.745Z,1.80
2023-02-23T20:47:51.890Z,1.95
2023-02-23T20:50:31.012Z,1.90
2023-02-23T20:52:59.330Z,2.05
2023-02-23T20:55:27.010Z,1.90
2023-02-23T20:57:55.303Z,2.30
2023-02-23T21:00:23.994Z,2.33
2023-02-23T21:02:55.481Z,1.70
2023-02-23T21:05:24.168Z,2.20
2023-02-23T21:07:50.542Z,2.88
2023-02-23T21:10:17.452Z,2.60
2023-02-23T21:12:43.837Z,3.33
2023-02-23T21:15:11.234Z,3.92
2023-02-23T21:17:38.436Z,3.30
2023-02-23T21:20:11.013Z,3.38
2023-02-23T21:22:38.453Z,2.73
2023-02-23T21:25:06.970Z,2.97
2023-02-23T21:27:33.522Z,2.42
2023-02-23T21:30:00.565Z,2.85
2023-02-23T21:32:30.899Z,2.67
2023-02-23T21:34:57.942Z,3.50
2023-02-23T21:37:24.572Z,2.45
2023-02-23T21:39:50.970Z,3.08
2023-02-23T21:42:23.018Z,2.40
2023-02-23T21:44:50.245Z,2.92
2023-02-23T21:47:16.619Z,3.23
2023-02-23T21:49:43.070Z,3.38
2023-02-23T21:52:09.914Z,3.05
2023-02-23T21:54:36.941Z,3.20
2023-02-23T21:57:04.485Z,3.28
2023-02-23T21:59:34.442Z,2.73
2023-02-23T22:02:00.897Z,2.22
2023-02-23T22:04:27.301Z,2.85
2023-02-23T22:06:53.626Z,2.40
2023-02-23T22:09:20.045Z,3.00
2023-02-23T22:11:47.461Z,2.63
2023-02-23T22:14:16.365Z,3.10
2023-02-23T22:16:43.036Z,3.22
2023-02-23T22:19:10.893Z,3.45
2023-02-23T22:21:41.655Z,3.38
2023-02-23T22:24:10.199Z,3.20
2023-02-23T22:26:41.713Z,3.00
2023-02-23T22:29:10.219Z,3.22
2023-02-23T22:31:37.787Z,2.97
2023-02-23T22:34:06.295Z,3.10
2023-02-23T22:36:34.262Z,3.00
2023-02-23T22:39:00.863Z,3.20
2023-02-23T22:41:29.663Z,3.05
2023-02-23T22:43:57.744Z,2.95
2023-02-23T22:46:25.911Z,3.13
2023-02-23T22:48:52.457Z,3.80
2023-02-23T22:51:22.031Z,3.05
2023-02-23T22:53:48.912Z,2.85
2023-02-23T22:56:15.495Z,3.15
2023-02-23T22:58:42.345Z,3.20
2023-02-23T23:01:11.567Z,3.20
2023-02-23T23:03:45.882Z,2.65
2023-02-23T23:06:22.915Z,2.85
2023-02-23T23:08:51.863Z,2.80
2023-02-23T23:11:22.981Z,3.13
2023-02-23T23:13:52.771Z,3.23
2023-02-23T23:16:31.047Z,2.72
2023-02-23T23:19:04.613Z,2.38
2023-02-23T23:21:33.494Z,2.00
2023-02-23T23:24:05.926Z,2.50
2023-02-23T23:26:34.849Z,2.57
2023-02-23T23:29:04.754Z,2.15
2023-02-23T23:31:34.924Z,2.45
2023-02-23T23:34:07.228Z,2.63
2023-02-23T23:36:37.364Z,2.42
2023-02-23T23:39:06.156Z,2.67
2023-02-23T23:41:35.700Z,1.85
2023-02-23T23:44:05.204Z,2.45
2023-02-23T23:46:37.488Z,2.33
2023-02-23T23:49:08.115Z,2.40
2023-02-23T23:51:44.646Z,2.57
2023-02-23T23:54:17.924Z,1.83
2023-02-23T23:56:44.972Z,2.50
2023-02-23T23:59:17.896Z,2.20
